createdAt,value
2023-01-30T00:00:12.612Z,16.10
2023-01-30T00:02:41.637Z,16.57
2023-01-30T00:05:10.970Z,14.87
2023-01-30T00:07:40.107Z,16.93
2023-01-30T00:10:11.930Z,16.47
2023-01-30T00:12:41.069Z,18.00
2023-01-30T00:15:10.682Z,15.97
2023-01-30T00:17:39.734Z,13.67
2023-01-30T00:20:09.725Z,17.27
2023-01-30T00:22:42.365Z,17.67
2023-01-30T00:25:14.829Z,15.53
2023-01-30T00:27:43.932Z,15.50
2023-01-30T00:30:13.784Z,12.63
2023-01-30T00:32:42.805Z,12.87
2023-01-30T00:35:11.891Z,14.10
2023-01-30T00:37:41.488Z,14.47
2023-01-30T00:40:13.674Z,14.77
2023-01-30T00:43:00.418Z,9.93
2023-01-30T00:45:47.056Z,15.37
2023-01-30T00:48:16.220Z,16.90
2023-01-30T00:50:45.647Z,14.27
2023-01-30T00:53:16.730Z,17.77
2023-01-30T00:55:47.256Z,13.57
2023-01-30T00:58:24.155Z,15.63
2023-01-30T01:00:53.693Z,16.27
2023-01-30T01:03:22.962Z,17.33
2023-01-30T01:05:52.224Z,15.73
2023-01-30T01:08:22.615Z,16.17
2023-01-30T01:10:53.059Z,13.40
2023-01-30T01:13:22.126Z,16.87
2023-01-30T01:15:51.746Z,18.37
2023-01-30T01:18:20.865Z,15.00
2023-01-30T01:20:49.920Z,12.13
2023-01-30T01:23:18.952Z,14.30
2023-01-30T01:25:48.196Z,17.83
2023-01-30T01:28:22.119Z,15.67
2023-01-30T01:30:51.267Z,14.37
2023-01-30T01:33:20.291Z,15.60
2023-01-30T01:35:49.324Z,17.37
2023-01-30T01:38:18.360Z,10.57
2023-01-30T01:41:01.968Z,16.00
2023-01-30T01:43:34.307Z,12.33
2023-01-30T01:46:09.289Z,15.37
2023-01-30T01:48:42.697Z,16.43
2023-01-30T01:51:18.022Z,14.83
2023-01-30T01:53:53.450Z,11.43
2023-01-30T01:56:22.993Z,11.90
2023-01-30T01:58:59.060Z,13.00
2023-01-30T02:01:29.043Z,11.73
2023-01-30T02:04:04.137Z,14.83
2023-01-30T02:06:33.698Z,14.47
2023-01-30T02:09:07.836Z,12.30
2023-01-30T02:11:44.659Z,13.67
2023-01-30T02:14:16.828Z,11.47
2023-01-30T02:16:48.487Z,10.83
2023-01-30T02:19:25.323Z,10.07
2023-01-30T02:22:19.369Z,12.07
2023-01-30T02:25:11.115Z,12.03
2023-01-30T02:28:23.650Z,9.80
2023-01-30T02:31:28.563Z,9.20
2023-01-30T02:34:23.074Z,9.03
2023-01-30T02:37:01.075Z,9.33
2023-01-30T02:39:40.920Z,7.87
2023-01-30T02:42:20.476Z,8.17
2023-01-30T02:44:59.857Z,9.43
2023-01-30T02:47:46.986Z,6.73
2023-01-30T02:50:23.935Z,8.30
2023-01-30T02:52:53.937Z,9.60
2023-01-30T02:55:25.845Z,7.37
2023-01-30T02:57:55.807Z,5.80
2023-01-30T03:00:45.006Z,6.57
2023-01-30T03:03:31.199Z,7.47
2023-01-30T03:06:30.173Z,8.43
2023-01-30T03:09:12.675Z,8.63
2023-01-30T03:11:48.530Z,7.30
2023-01-30T03:14:25.198Z,4.93
2023-01-30T03:16:56.333Z,6.80
2023-01-30T03:19:25.656Z,7.23
2023-01-30T03:21:56.318Z,4.00
2023-01-30T03:24:27.295Z,7.10
2023-01-30T03:27:02.422Z,3.73
2023-01-30T03:29:31.653Z,6.20
2023-01-30T03:32:00.808Z,6.67
2023-01-30T03:34:29.955Z,5.10
2023-01-30T03:37:00.457Z,4.93
2023-01-30T03:39:29.626Z,6.03
2023-01-30T03:41:58.997Z,5.20
2023-01-30T03:44:28.718Z,4.53
2023-01-30T03:46:57.870Z,5.77
2023-01-30T03:49:26.931Z,5.20
2023-01-30T03:51:56.727Z,5.83
2023-01-30T03:54:27.632Z,4.37
2023-01-30T03:56:57.087Z,4.20
2023-01-30T03:59:26.415Z,3.27
2023-01-30T04:02:03.461Z,4.23
2023-01-30T04:04:32.612Z,4.03
2023-01-30T04:07:02.408Z,3.17
2023-01-30T04:09:32.880Z,1.87
2023-01-30T04:12:01.963Z,1.40
2023-01-30T04:14:36.287Z,1.07
2023-01-30T04:17:19.275Z,1.30
2023-01-30T04:19:48.247Z,0.90
2023-01-30T04:22:17.282Z,0.83
2023-01-30T04:24:47.689Z,0.90
2023-01-30T04:27:17.543Z,0.90
2023-01-30T04:30:04.987Z,0.80
2023-01-30T04:32:34.120Z,2.27
2023-01-30T04:35:03.438Z,1.03
2023-01-30T04:37:32.500Z,1.00
2023-01-30T04:40:03.109Z,1.03
2023-01-30T04:42:32.268Z,0.70
2023-01-30T04:45:30.444Z,1.30
2023-01-30T04:47:59.521Z,0.80
2023-01-30T04:50:29.050Z,0.70
2023-01-30T04:52:58.082Z,0.67
2023-01-30T04:55:28.531Z,0.90
2023-01-30T04:57:57.869Z,0.80
2023-01-30T05:00:28.555Z,0.73
2023-01-30T05:03:01.312Z,0.70
2023-01-30T05:05:30.430Z,0.50
2023-01-30T05:07:59.569Z,0.97
2023-01-30T05:10:30.210Z,0.97
2023-01-30T05:13:03.803Z,1.03
2023-01-30T05:15:33.068Z,0.63
2023-01-30T05:18:02.189Z,1.10
2023-01-30T05:20:31.340Z,1.00
2023-01-30T05:23:00.345Z,1.03
2023-01-30T05:25:30.779Z,0.90
2023-01-30T05:28:00.220Z,1.07
2023-01-30T05:30:29.324Z,1.27
2023-01-30T05:32:59.643Z,0.70
2023-01-30T05:35:28.642Z,0.63
2023-01-30T05:37:59.485Z,1.57
2023-01-30T05:40:30.011Z,0.87
2023-01-30T05:42:59.002Z,1.23
2023-01-30T05:45:28.031Z,1.30
2023-01-30T05:48:01.281Z,1.33
2023-01-30T05:50:32.341Z,1.83
2023-01-30T05:53:01.477Z,1.23
2023-01-30T05:55:31.915Z,2.03
2023-01-30T05:58:00.948Z,1.20
2023-01-30T06:00:30.017Z,1.87
2023-01-30T06:02:59.117Z,0.60
2023-01-30T06:05:28.161Z,1.27
2023-01-30T06:07:57.293Z,1.17
2023-01-30T06:10:26.299Z,1.30
2023-01-30T06:12:56.725Z,1.90
2023-01-30T06:15:25.812Z,1.60
2023-01-30T06:17:55.041Z,1.93
2023-01-30T06:20:24.192Z,0.97
2023-01-30T06:22:53.236Z,1.87
2023-01-30T06:25:22.335Z,1.20
2023-01-30T06:27:51.686Z,1.57
2023-01-30T06:30:22.379Z,1.33
2023-01-30T06:32:52.633Z,1.37
2023-01-30T06:35:22.539Z,1.33
2023-01-30T06:37:56.119Z,1.67
2023-01-30T06:40:25.411Z,1.90
2023-01-30T06:42:55.460Z,1.70
2023-01-30T06:45:26.122Z,2.00
2023-01-30T06:47:57.175Z,1.50
2023-01-30T06:50:29.372Z,1.53
2023-01-30T06:52:59.674Z,1.80
2023-01-30T06:55:29.903Z,1.10
2023-01-30T06:58:07.670Z,1.50
2023-01-30T07:00:40.483Z,1.43
2023-01-30T07:03:12.489Z,1.80
2023-01-30T07:05:41.644Z,1.40
2023-01-30T07:08:11.453Z,1.90
2023-01-30T07:10:41.270Z,1.37
2023-01-30T07:13:10.382Z,1.37
2023-01-30T07:15:40.804Z,2.00
2023-01-30T07:18:09.829Z,1.20
2023-01-30T07:20:39.055Z,1.60
2023-01-30T07:23:08.104Z,1.40
2023-01-30T07:25:37.214Z,1.63
2023-01-30T07:28:06.484Z,1.80
2023-01-30T07:30:36.963Z,0.93
2023-01-30T07:33:08.148Z,1.20
2023-01-30T07:35:38.538Z,1.33
2023-01-30T07:38:07.752Z,1.30
2023-01-30T07:40:36.787Z,1.60
2023-01-30T07:43:07.850Z,1.20
2023-01-30T07:45:40.020Z,1.93
2023-01-30T07:48:11.298Z,2.10
2023-01-30T07:50:41.025Z,1.87
2023-01-30T07:53:13.444Z,1.87
2023-01-30T07:55:42.758Z,1.40
2023-01-30T07:58:15.396Z,1.77
2023-01-30T08:00:45.312Z,1.47
2023-01-30T08:03:17.400Z,1.73
2023-01-30T08:05:48.049Z,2.50
2023-01-30T08:08:17.514Z,1.93
2023-01-30T08:10:46.790Z,1.57
2023-01-30T08:13:16.084Z,2.50
2023-01-30T08:15:45.254Z,1.43
2023-01-30T08:18:15.679Z,1.67
2023-01-30T08:20:44.797Z,2.53
2023-01-30T08:23:14.081Z,2.03
2023-01-30T08:25:43.203Z,2.27
2023-01-30T08:28:12.236Z,1.83
2023-01-30T08:30:42.998Z,2.37
2023-01-30T08:33:12.143Z,2.87
2023-01-30T08:35:43.272Z,3.43
2023-01-30T08:38:12.376Z,1.97
2023-01-30T08:40:41.430Z,3.47
2023-01-30T08:43:11.348Z,2.93
2023-01-30T08:45:40.400Z,3.50
2023-01-30T08:48:09.422Z,2.70
2023-01-30T08:50:38.552Z,3.20
2023-01-30T08:53:10.321Z,2.83
2023-01-30T08:55:39.382Z,3.27
2023-01-30T08:58:08.393Z,3.23
2023-01-30T09:00:39.272Z,3.77
2023-01-30T09:03:08.671Z,3.30
2023-01-30T09:05:37.708Z,3.53
2023-01-30T09:08:08.397Z,2.80
2023-01-30T09:10:37.834Z,3.00
2023-01-30T09:13:09.309Z,3.90
2023-01-30T09:15:38.555Z,4.50
2023-01-30T09:18:07.904Z,3.70
2023-01-30T09:20:36.953Z,3.10
2023-01-30T09:23:05.982Z,4.33
2023-01-30T09:25:36.388Z,2.90
2023-01-30T09:28:05.613Z,3.60
2023-01-30T09:30:34.770Z,3.90
2023-01-30T09:33:03.929Z,3.30
2023-01-30T09:35:32.989Z,2.80
2023-01-30T09:38:02.980Z,4.23
2023-01-30T09:40:39.382Z,1.90
2023-01-30T09:43:33.382Z,3.53
2023-01-30T09:46:12.978Z,2.67
2023-01-30T09:48:54.715Z,4.07
2023-01-30T09:51:43.780Z,4.00
2023-01-30T09:54:24.424Z,3.33
2023-01-30T09:57:21.218Z,3.03
2023-01-30T09:59:58.721Z,3.03
2023-01-30T10:02:45.792Z,2.60
2023-01-30T10:05:15.084Z,2.77
2023-01-30T10:07:55.902Z,2.23
2023-01-30T10:10:37.498Z,2.67
2023-01-30T10:13:26.401Z,2.57
2023-01-30T10:16:05.388Z,1.97
2023-01-30T10:19:10.249Z,4.03
2023-01-30T10:21:48.528Z,1.63
2023-01-30T10:24:34.191Z,2.20
2023-01-30T10:27:04.938Z,2.03
2023-01-30T10:29:39.323Z,2.10
2023-01-30T10:32:13.846Z,1.57
2023-01-30T10:34:47.182Z,1.93
2023-01-30T10:37:21.459Z,2.60
2023-01-30T10:40:00.534Z,1.93
2023-01-30T10:42:38.868Z,2.27
2023-01-30T10:45:14.674Z,2.57
2023-01-30T10:47:54.909Z,2.80
2023-01-30T10:50:30.468Z,2.47
2023-01-30T10:53:05.529Z,2.40
2023-01-30T10:55:47.367Z,2.63
2023-01-30T10:58:26.450Z,2.03
2023-01-30T11:01:02.490Z,2.00
2023-01-30T11:03:38.844Z,1.57
2023-01-30T11:06:12.969Z,1.40
2023-01-30T11:08:42.046Z,0.50
2023-01-30T11:11:30.531Z,0.97
2023-01-30T11:14:04.011Z,0.93
2023-01-30T11:16:44.389Z,0.50
2023-01-30T11:19:22.649Z,0.70
2023-01-30T11:21:54.443Z,0.60
2023-01-30T11:24:29.716Z,0.60
2023-01-30T11:27:12.287Z,0.80
2023-01-30T11:29:41.754Z,0.30
2023-01-30T11:32:27.054Z,0.60
2023-01-30T11:35:18.195Z,0.57
2023-01-30T11:37:47.650Z,0.80
2023-01-30T11:40:25.301Z,1.10
2023-01-30T11:43:00.088Z,0.93
2023-01-30T11:45:30.581Z,1.17
2023-01-30T11:48:05.932Z,1.30
2023-01-30T11:50:45.355Z,1.97
2023-01-30T11:53:33.866Z,1.33
2023-01-30T11:56:09.346Z,0.60
2023-01-30T11:58:46.107Z,1.50
2023-01-30T12:01:17.544Z,1.10
2023-01-30T12:03:53.777Z,1.30
2023-01-30T12:06:24.727Z,1.80
2023-01-30T12:08:55.871Z,1.03
2023-01-30T12:11:45.019Z,1.90
2023-01-30T12:14:28.322Z,1.07
2023-01-30T12:17:11.072Z,0.50
2023-01-30T12:19:52.323Z,0.30
2023-01-30T12:22:30.065Z,2.80
2023-01-30T12:25:10.301Z,0.40
2023-01-30T12:30:33.543Z,0.57
2023-01-30T12:33:04.526Z,1.17
2023-01-30T12:35:50.092Z,1.03
2023-01-30T12:38:45.889Z,0.70
2023-01-30T12:41:27.779Z,1.00
2023-01-30T12:44:14.564Z,2.17
2023-01-30T12:46:55.986Z,1.70
2023-01-30T12:49:42.197Z,1.00
2023-01-30T12:52:40.085Z,0.90
2023-01-30T12:55:23.383Z,0.93
2023-01-30T12:57:58.958Z,0.80
2023-01-30T13:00:42.934Z,1.73
2023-01-30T13:03:26.547Z,1.13
2023-01-30T13:06:07.676Z,2.00
2023-01-30T13:09:03.896Z,1.47
2023-01-30T13:11:44.081Z,2.40
2023-01-30T13:14:20.582Z,2.93
2023-01-30T13:17:04.637Z,2.77
2023-01-30T13:19:41.659Z,1.27
2023-01-30T13:22:16.749Z,2.17
2023-01-30T13:24:57.287Z,2.40
2023-01-30T13:27:28.216Z,2.73
2023-01-30T13:30:00.409Z,2.73
2023-01-30T13:32:37.665Z,2.80
2023-01-30T13:35:15.334Z,3.10
2023-01-30T13:37:48.908Z,2.10
2023-01-30T13:40:22.624Z,1.97
2023-01-30T13:42:57.570Z,1.70
2023-01-30T13:45:30.777Z,2.60
2023-01-30T13:48:15.731Z,2.17
2023-01-30T13:51:08.479Z,2.03
2023-01-30T13:53:43.554Z,1.57
2023-01-30T13:56:40.279Z,1.33
2023-01-30T13:59:21.615Z,1.37
2023-01-30T14:02:10.954Z,2.27
2023-01-30T14:04:48.628Z,2.10
2023-01-30T14:07:23.919Z,2.37
2023-01-30T14:10:06.295Z,2.10
2023-01-30T14:12:41.045Z,1.60
2023-01-30T14:15:25.498Z,2.33
2023-01-30T14:18:05.262Z,1.77
2023-01-30T14:20:35.954Z,1.43
2023-01-30T14:23:15.484Z,3.30
2023-01-30T14:25:50.131Z,2.40
2023-01-30T14:28:51.344Z,3.47
2023-01-30T14:31:54.837Z,2.47
2023-01-30T14:35:13.980Z,3.70
2023-01-30T14:38:07.489Z,10.20
2023-01-30T14:40:58.565Z,4.30
2023-01-30T14:43:53.860Z,9.43
2023-01-30T14:46:54.695Z,3.40
2023-01-30T14:49:35.948Z,2.67
2023-01-30T14:52:05.736Z,3.30
2023-01-30T14:54:45.148Z,3.77
2023-01-30T14:57:32.683Z,2.67
2023-01-30T15:00:18.148Z,2.47
2023-01-30T15:02:53.566Z,2.43
2023-01-30T15:05:29.900Z,2.33
2023-01-30T15:08:07.079Z,2.70
2023-01-30T15:10:53.261Z,2.43
2023-01-30T15:13:43.198Z,2.30
2023-01-30T15:16:34.659Z,3.47
2023-01-30T15:19:21.621Z,2.23
2023-01-30T15:22:03.681Z,2.37
2023-01-30T15:25:15.586Z,2.53
2023-01-30T15:28:02.910Z,3.10
2023-01-30T15:30:56.993Z,2.43
2023-01-30T15:33:32.509Z,1.93
2023-01-30T15:36:18.226Z,2.80
2023-01-30T15:38:47.437Z,2.97
2023-01-30T15:41:16.499Z,3.93
2023-01-30T15:44:22.035Z,3.00
2023-01-30T15:46:58.001Z,3.30
2023-01-30T15:49:51.753Z,2.47
2023-01-30T15:52:22.760Z,2.50
2023-01-30T15:54:53.489Z,3.13
2023-01-30T15:57:29.324Z,2.60
2023-01-30T15:59:58.995Z,2.73
2023-01-30T16:02:32.740Z,3.60
2023-01-30T16:05:13.941Z,3.40
2023-01-30T16:07:44.221Z,3.53
2023-01-30T16:10:18.445Z,2.60
2023-01-30T16:12:48.260Z,3.53
2023-01-30T16:15:21.257Z,2.73
2023-01-30T16:18:01.817Z,3.80
2023-01-30T16:20:48.746Z,2.23
2023-01-30T16:23:29.121Z,2.33
2023-01-30T16:25:59.977Z,2.07
2023-01-30T16:28:32.938Z,3.20
2023-01-30T16:31:05.127Z,2.50
2023-01-30T16:33:37.151Z,2.47
2023-01-30T16:36:24.604Z,3.80
2023-01-30T16:38:56.136Z,3.23
2023-01-30T16:41:32.136Z,3.10
2023-01-30T16:44:18.406Z,3.40
2023-01-30T16:46:50.273Z,2.10
2023-01-30T16:49:23.694Z,2.40
2023-01-30T16:52:04.360Z,2.80
2023-01-30T16:54:34.816Z,2.80
2023-01-30T16:57:04.947Z,2.53
2023-01-30T16:59:36.340Z,2.43
2023-01-30T17:02:08.083Z,3.20
2023-01-30T17:04:41.214Z,2.70
2023-01-30T17:07:35.571Z,1.97
2023-01-30T17:10:04.830Z,2.50
2023-01-30T17:12:44.541Z,2.23
2023-01-30T17:15:34.821Z,2.53
2023-01-30T17:18:04.123Z,3.10
2023-01-30T17:20:40.057Z,1.63
2023-01-30T17:23:18.456Z,3.20
2023-01-30T17:25:49.768Z,2.87
2023-01-30T17:28:21.612Z,2.80
2023-01-30T17:30:51.225Z,2.63
2023-01-30T17:33:20.369Z,2.43
2023-01-30T17:35:49.602Z,2.97
2023-01-30T17:38:19.977Z,2.07
2023-01-30T17:40:56.262Z,2.03
2023-01-30T17:43:25.465Z,2.10
2023-01-30T17:45:56.743Z,2.50
2023-01-30T17:48:26.540Z,2.17
2023-01-30T17:50:55.729Z,2.83
2023-01-30T17:53:26.156Z,3.37
2023-01-30T17:55:55.225Z,2.17
2023-01-30T17:58:24.649Z,2.20
2023-01-30T18:00:53.967Z,2.57
2023-01-30T18:03:22.992Z,2.70
2023-01-30T18:05:52.478Z,2.23
2023-01-30T18:08:21.531Z,2.00
2023-01-30T18:10:51.947Z,2.60
2023-01-30T18:13:21.420Z,2.67
2023-01-30T18:15:50.585Z,2.30
2023-01-30T18:18:20.165Z,2.30
2023-01-30T18:20:49.209Z,2.20
2023-01-30T18:23:18.238Z,2.07
2023-01-30T18:25:47.462Z,2.57
2023-01-30T18:28:18.156Z,2.60
2023-01-30T18:30:47.406Z,2.67
2023-01-30T18:33:16.624Z,2.60
2023-01-30T18:35:48.894Z,2.47
2023-01-30T18:38:18.122Z,2.43
2023-01-30T18:40:47.216Z,1.67
2023-01-30T18:43:18.298Z,1.97
2023-01-30T18:45:50.181Z,2.07
2023-01-30T18:48:19.197Z,2.27
2023-01-30T18:50:48.251Z,2.77
2023-01-30T18:53:17.335Z,2.53
2023-01-30T18:55:51.239Z,3.03
2023-01-30T18:58:21.720Z,3.10
2023-01-30T19:00:50.785Z,3.77
2023-01-30T19:03:19.847Z,2.90
2023-01-30T19:05:48.929Z,2.87
2023-01-30T19:08:18.022Z,3.40
2023-01-30T19:10:47.201Z,3.13
2023-01-30T19:13:33.339Z,2.57
2023-01-30T19:16:05.303Z,2.00
2023-01-30T19:18:34.509Z,2.60
2023-01-30T19:21:03.981Z,3.33
2023-01-30T19:23:33.920Z,2.73
2023-01-30T19:26:03.379Z,3.17
2023-01-30T19:28:33.234Z,2.57
2023-01-30T19:31:07.564Z,3.17
2023-01-30T19:33:37.228Z,3.20
2023-01-30T19:36:10.169Z,3.40
2023-01-30T19:38:39.574Z,3.33
2023-01-30T19:41:12.857Z,2.67
2023-01-30T19:43:42.382Z,2.10
2023-01-30T19:46:14.375Z,2.63
2023-01-30T19:48:44.099Z,2.30
2023-01-30T19:51:14.849Z,2.60
2023-01-30T19:53:45.244Z,2.17
2023-01-30T19:56:15.573Z,2.53
2023-01-30T19:58:44.834Z,2.43
2023-01-30T20:01:16.230Z,2.23
2023-01-30T20:03:45.516Z,2.90
2023-01-30T20:06:17.082Z,3.50
2023-01-30T20:08:48.271Z,3.00
2023-01-30T20:11:18.870Z,2.50
2023-01-30T20:13:48.004Z,2.47
2023-01-30T20:16:20.775Z,2.10
2023-01-30T20:18:54.917Z,2.77
2023-01-30T20:21:25.410Z,2.13
2023-01-30T20:23:54.703Z,2.77
2023-01-30T20:26:25.424Z,2.97
2023-01-30T20:28:56.151Z,1.93
2023-01-30T20:31:28.703Z,3.53
2023-01-30T20:33:58.308Z,2.33
2023-01-30T20:36:28.462Z,1.90
2023-01-30T20:39:01.708Z,2.03
2023-01-30T20:41:32.299Z,2.47
2023-01-30T20:44:04.965Z,3.27
2023-01-30T20:46:41.467Z,2.63
2023-01-30T20:49:14.602Z,2.73
2023-01-30T20:51:45.475Z,3.00
2023-01-30T20:54:15.699Z,3.23
2023-01-30T20:56:49.921Z,2.07
2023-01-30T20:59:23.857Z,2.00
2023-01-30T21:01:54.860Z,2.53
2023-01-30T21:04:25.261Z,1.80
2023-01-30T21:06:54.775Z,1.63
2023-01-30T21:09:25.520Z,1.57
2023-01-30T21:11:56.200Z,1.93
2023-01-30T21:14:26.669Z,2.57
2023-01-30T21:16:57.466Z,2.47
2023-01-30T21:19:27.223Z,2.53
2023-01-30T21:22:00.938Z,2.30
2023-01-30T21:24:30.697Z,2.97
2023-01-30T21:27:01.719Z,1.90
2023-01-30T21:29:31.606Z,3.53
2023-01-30T21:32:02.564Z,2.13
2023-01-30T21:34:35.640Z,1.60
2023-01-30T21:37:22.205Z,2.03
2023-01-30T21:40:08.750Z,2.00
2023-01-30T21:43:01.556Z,1.37
2023-01-30T21:45:32.301Z,2.33
2023-01-30T21:48:10.228Z,2.07
2023-01-30T21:50:39.782Z,1.10
2023-01-30T21:53:08.858Z,1.63
2023-01-30T21:55:37.920Z,1.47
2023-01-30T21:58:06.994Z,2.10
2023-01-30T22:00:36.684Z,1.20
2023-01-30T22:03:07.281Z,2.60
2023-01-30T22:05:36.962Z,1.87
2023-01-30T22:08:06.382Z,1.93
2023-01-30T22:10:35.450Z,1.80
2023-01-30T22:13:04.485Z,2.13
2023-01-30T22:15:33.979Z,2.77
2023-01-30T22:18:03.852Z,2.00
2023-01-30T22:20:34.283Z,1.70
2023-01-30T22:23:03.344Z,1.43
2023-01-30T22:25:32.351Z,1.60
2023-01-30T22:28:01.398Z,1.80
2023-01-30T22:30:30.789Z,1.27
2023-01-30T22:32:59.983Z,2.13
2023-01-30T22:35:29.124Z,1.90
2023-01-30T22:37:59.502Z,1.73
2023-01-30T22:40:28.582Z,1.37
2023-01-30T22:42:57.647Z,2.03
2023-01-30T22:45:26.723Z,2.10
2023-01-30T22:47:55.781Z,1.20
2023-01-30T22:50:24.793Z,2.90
2023-01-30T22:52:55.603Z,2.97
2023-01-30T22:55:26.089Z,1.60
2023-01-30T22:57:55.160Z,1.60
2023-01-30T23:00:24.290Z,1.60
2023-01-30T23:02:53.347Z,1.70
2023-01-30T23:05:22.382Z,1.50
2023-01-30T23:07:51.413Z,2.07
2023-01-30T23:10:20.496Z,1.30
2023-01-30T23:13:07.407Z,1.80
2023-01-30T23:15:40.701Z,1.83
2023-01-30T23:18:29.256Z,1.00
2023-01-30T23:20:58.361Z,0.90
2023-01-30T23:23:27.515Z,1.43
2023-01-30T23:25:56.504Z,1.10
2023-01-30T23:28:26.941Z,1.40
2023-01-30T23:30:56.119Z,1.10
2023-01-30T23:33:25.145Z,1.00
2023-01-30T23:35:54.161Z,2.27
2023-01-30T23:38:24.014Z,1.23
2023-01-30T23:40:53.051Z,1.30
2023-01-30T23:43:22.173Z,1.87
2023-01-30T23:45:55.801Z,1.40
2023-01-30T23:48:24.927Z,0.93
2023-01-30T23:50:53.969Z,2.57
2023-01-30T23:53:22.994Z,1.57
2023-01-30T23:55:53.017Z,1.30
2023-01-30T23:58:22.368Z,2.30
